sensor_id;sensor_type;location;lat;lon;timestamp;temperature;humidity
14946;DHT22;7567;50.916;6.900;2023-09-08T00:01:52;17.60;99.90
14946;DHT22;7567;50.916;6.900;2023-09-08T00:04:18;17.60;99.90
14946;DHT22;7567;50.916;6.900;2023-09-08T00:06:46;17.60;99.90
14946;DHT22;7567;50.916;6.900;2023-09-08T00:09:12;17.60;99.90
14946;DHT22;7567;50.916;6.900;2023-09-08T00:11:38;17.70;99.90
14946;DHT22;7567;50.916;6.900;2023-09-08T00:14:04;17.70;99.90
14946;DHT22;7567;50.916;6.900;2023-09-08T00:16:30;17.60;99.90
14946;DHT22;7567;50.916;6.900;2023-09-08T00:18:57;17.60;99.90
14946;DHT22;7567;50.916;6.900;2023-09-08T00:21:26;17.50;99.90
14946;DHT22;7567;50.916;6.900;2023-09-08T00:23:53;17.40;99.90
14946;DHT22;7567;50.916;6.900;2023-09-08T00:26:19;17.40;99.90
14946;DHT22;7567;50.916;6.900;2023-09-08T00:28:46;17.40;99.90
14946;DHT22;7567;50.916;6.900;2023-09-08T00:31:11;17.50;99.90
14946;DHT22;7567;50.916;6.900;2023-09-08T00:33:37;17.40;99.90
14946;DHT22;7567;50.916;6.900;2023-09-08T00:36:04;17.40;99.90
14946;DHT22;7567;50.916;6.900;2023-09-08T00:38:30;17.40;99.90
14946;DHT22;7567;50.916;6.900;2023-09-08T00:40:56;17.40;99.90
14946;DHT22;7567;50.916;6.900;2023-09-08T00:43:22;17.40;99.90
14946;DHT22;7567;50.916;6.900;2023-09-08T00:45:48;17.30;99.90
14946;DHT22;7567;50.916;6.900;2023-09-08T00:48:14;17.30;99.90
14946;DHT22;7567;50.916;6.900;2023-09-08T00:50:40;17.30;99.90
14946;DHT22;7567;50.916;6.900;2023-09-08T00:53:07;17.20;99.90
14946;DHT22;7567;50.916;6.900;2023-09-08T00:55:34;17.20;99.90
14946;DHT22;7567;50.916;6.900;2023-09-08T00:58:01;17.20;99.90
14946;DHT22;7567;50.916;6.900;2023-09-08T01:00:27;17.20;99.90
14946;DHT22;7567;50.916;6.900;2023-09-08T01:02:53;17.20;99.90
14946;DHT22;7567;50.916;6.900;2023-09-08T01:05:20;17.10;99.90
14946;DHT22;7567;50.916;6.900;2023-09-08T01:07:47;17.00;99.90
14946;DHT22;7567;50.916;6.900;2023-09-08T01:10:14;17.00;99.90
14946;DHT22;7567;50.916;6.900;2023-09-08T01:12:41;17.00;99.90
14946;DHT22;7567;50.916;6.900;2023-09-08T01:15:07;17.00;99.90
14946;DHT22;7567;50.916;6.900;2023-09-08T01:17:35;17.00;99.90
14946;DHT22;7567;50.916;6.900;2023-09-08T01:25:25;16.90;99.90
14946;DHT22;7567;50.916;6.900;2023-09-08T01:27:54;17.00;99.90
14946;DHT22;7567;50.916;6.900;2023-09-08T01:30:23;17.00;99.90
14946;DHT22;7567;50.916;6.900;2023-09-08T01:32:50;16.90;99.90
14946;DHT22;7567;50.916;6.900;2023-09-08T01:35:16;16.90;99.90
14946;DHT22;7567;50.916;6.900;2023-09-08T01:37:45;16.90;99.90
14946;DHT22;7567;50.916;6.900;2023-09-08T01:40:15;16.90;99.90
14946;DHT22;7567;50.916;6.900;2023-09-08T01:42:41;16.90;99.90
14946;DHT22;7567;50.916;6.900;2023-09-08T01:45:08;16.80;99.90
14946;DHT22;7567;50.916;6.900;2023-09-08T01:47:34;16.80;99.90
14946;DHT22;7567;50.916;6.900;2023-09-08T01:50:00;16.80;99.90
14946;DHT22;7567;50.916;6.900;2023-09-08T01:52:27;16.80;99.90
14946;DHT22;7567;50.916;6.900;2023-09-08T01:54:53;16.80;99.90
14946;DHT22;7567;50.916;6.900;2023-09-08T01:57:19;16.80;99.90
14946;DHT22;7567;50.916;6.900;2023-09-08T01:59:45;16.70;99.90
14946;DHT22;7567;50.916;6.900;2023-09-08T02:02:11;16.70;99.90
14946;DHT22;7567;50.916;6.900;2023-09-08T02:04:38;16.70;99.90
14946;DHT22;7567;50.916;6.900;2023-09-08T02:07:04;16.70;99.90
14946;DHT22;7567;50.916;6.900;2023-09-08T02:09:34;16.70;99.90
14946;DHT22;7567;50.916;6.900;2023-09-08T02:12:01;16.60;99.90
14946;DHT22;7567;50.916;6.900;2023-09-08T02:14:27;16.60;99.90
14946;DHT22;7567;50.916;6.900;2023-09-08T02:16:54;16.50;99.90
14946;DHT22;7567;50.916;6.900;2023-09-08T02:19:20;16.60;99.90
14946;DHT22;7567;50.916;6.900;2023-09-08T02:21:46;16.50;99.90
14946;DHT22;7567;50.916;6.900;2023-09-08T02:24:12;16.40;99.90
14946;DHT22;7567;50.916;6.900;2023-09-08T02:26:39;16.40;99.90
14946;DHT22;7567;50.916;6.900;2023-09-08T02:29:05;16.50;99.90
14946;DHT22;7567;50.916;6.900;2023-09-08T02:31:31;16.40;99.90
14946;DHT22;7567;50.916;6.900;2023-09-08T02:33:57;16.40;99.90
14946;DHT22;7567;50.916;6.900;2023-09-08T02:36:23;16.40;99.90
14946;DHT22;7567;50.916;6.900;2023-09-08T02:38:55;16.30;99.90
14946;DHT22;7567;50.916;6.900;2023-09-08T02:41:22;16.30;99.90
14946;DHT22;7567;50.916;6.900;2023-09-08T02:43:48;16.20;99.90
14946;DHT22;7567;50.916;6.900;2023-09-08T02:46:15;16.20;99.90
14946;DHT22;7567;50.916;6.900;2023-09-08T02:48:41;16.20;99.90
14946;DHT22;7567;50.916;6.900;2023-09-08T02:51:07;16.20;99.90
14946;DHT22;7567;50.916;6.900;2023-09-08T02:53:33;16.20;99.90
14946;DHT22;7567;50.916;6.900;2023-09-08T02:56:00;16.20;99.90
14946;DHT22;7567;50.916;6.900;2023-09-08T02:58:26;16.20;99.90
14946;DHT22;7567;50.916;6.900;2023-09-08T03:00:53;16.20;99.90
14946;DHT22;7567;50.916;6.900;2023-09-08T03:03:19;16.10;99.90
14946;DHT22;7567;50.916;6.900;2023-09-08T03:05:45;16.10;99.90
14946;DHT22;7567;50.916;6.900;2023-09-08T03:08:11;16.10;99.90
14946;DHT22;7567;50.916;6.900;2023-09-08T03:10:38;16.10;99.90
14946;DHT22;7567;50.916;6.900;2023-09-08T03:13:07;16.20;99.90
14946;DHT22;7567;50.916;6.900;2023-09-08T03:15:34;16.00;99.90
14946;DHT22;7567;50.916;6.900;2023-09-08T03:18:00;16.00;99.90
14946;DHT22;7567;50.916;6.900;2023-09-08T03:20:27;15.90;99.90
14946;DHT22;7567;50.916;6.900;2023-09-08T03:22:54;16.00;99.90
14946;DHT22;7567;50.916;6.900;2023-09-08T03:25:21;16.10;99.90
14946;DHT22;7567;50.916;6.900;2023-09-08T03:27:47;16.10;99.90
14946;DHT22;7567;50.916;6.900;2023-09-08T03:30:13;16.10;99.90
14946;DHT22;7567;50.916;6.900;2023-09-08T03:32:39;16.00;99.90
14946;DHT22;7567;50.916;6.900;2023-09-08T03:35:06;15.90;99.90
14946;DHT22;7567;50.916;6.900;2023-09-08T03:37:34;15.90;99.90
14946;DHT22;7567;50.916;6.900;2023-09-08T03:40:01;15.90;99.90
14946;DHT22;7567;50.916;6.900;2023-09-08T03:42:27;15.90;99.90
14946;DHT22;7567;50.916;6.900;2023-09-08T03:44:52;15.90;99.90
14946;DHT22;7567;50.916;6.900;2023-09-08T03:47:18;15.90;99.90
14946;DHT22;7567;50.916;6.900;2023-09-08T03:49:44;15.90;99.90
14946;DHT22;7567;50.916;6.900;2023-09-08T03:52:10;15.80;99.90
14946;DHT22;7567;50.916;6.900;2023-09-08T03:54:37;15.80;99.90
14946;DHT22;7567;50.916;6.900;2023-09-08T03:57:04;15.80;99.90
14946;DHT22;7567;50.916;6.900;2023-09-08T03:59:30;15.80;99.90
14946;DHT22;7567;50.916;6.900;2023-09-08T04:01:55;15.80;99.90
14946;DHT22;7567;50.916;6.900;2023-09-08T04:04:21;15.80;99.90
14946;DHT22;7567;50.916;6.900;2023-09-08T04:06:47;15.80;99.90
14946;DHT22;7567;50.916;6.900;2023-09-08T04:09:14;15.70;99.90
14946;DHT22;7567;50.916;6.900;2023-09-08T04:11:40;15.70;99.90
14946;DHT22;7567;50.916;6.900;2023-09-08T04:14:06;15.70;99.90
14946;DHT22;7567;50.916;6.900;2023-09-08T04:16:32;15.70;99.90
14946;DHT22;7567;50.916;6.900;2023-09-08T04:18:58;15.70;99.90
14946;DHT22;7567;50.916;6.900;2023-09-08T04:21:24;15.60;99.90
14946;DHT22;7567;50.916;6.900;2023-09-08T04:23:50;15.60;99.90
14946;DHT22;7567;50.916;6.900;2023-09-08T04:26:16;15.60;99.90
14946;DHT22;7567;50.916;6.900;2023-09-08T04:28:42;15.60;99.90
14946;DHT22;7567;50.916;6.900;2023-09-08T04:31:08;15.50;99.90
14946;DHT22;7567;50.916;6.900;2023-09-08T04:33:34;15.50;99.90
14946;DHT22;7567;50.916;6.900;2023-09-08T04:36:00;15.50;99.90
14946;DHT22;7567;50.916;6.900;2023-09-08T04:38:26;15.40;99.90
14946;DHT22;7567;50.916;6.900;2023-09-08T04:40:52;15.40;99.90
14946;DHT22;7567;50.916;6.900;2023-09-08T04:43:18;15.40;99.90
14946;DHT22;7567;50.916;6.900;2023-09-08T04:45:43;15.40;99.90
14946;DHT22;7567;50.916;6.900;2023-09-08T04:48:09;15.40;99.90
14946;DHT22;7567;50.916;6.900;2023-09-08T04:50:36;15.40;99.90
14946;DHT22;7567;50.916;6.900;2023-09-08T04:53:02;15.30;99.90
14946;DHT22;7567;50.916;6.900;2023-09-08T04:55:28;15.30;99.90
14946;DHT22;7567;50.916;6.900;2023-09-08T04:57:54;15.30;99.90
14946;DHT22;7567;50.916;6.900;2023-09-08T05:00:20;15.30;99.90
14946;DHT22;7567;50.916;6.900;2023-09-08T05:02:46;15.30;99.90
14946;DHT22;7567;50.916;6.900;2023-09-08T05:05:12;15.30;99.90
14946;DHT22;7567;50.916;6.900;2023-09-08T05:07:41;15.30;99.90
14946;DHT22;7567;50.916;6.900;2023-09-08T05:10:07;15.30;99.90
14946;DHT22;7567;50.916;6.900;2023-09-08T05:12:34;15.30;99.90
14946;DHT22;7567;50.916;6.900;2023-09-08T05:15:00;15.30;99.90
14946;DHT22;7567;50.916;6.900;2023-09-08T05:17:32;15.30;99.90
14946;DHT22;7567;50.916;6.900;2023-09-08T05:19:59;15.30;99.90
14946;DHT22;7567;50.916;6.900;2023-09-08T05:22:25;15.40;99.90
14946;DHT22;7567;50.916;6.900;2023-09-08T05:24:51;15.40;99.90
14946;DHT22;7567;50.916;6.900;2023-09-08T05:27:17;15.40;99.90
14946;DHT22;7567;50.916;6.900;2023-09-08T05:29:43;15.40;99.90
14946;DHT22;7567;50.916;6.900;2023-09-08T05:32:09;15.40;99.90
14946;DHT22;7567;50.916;6.900;2023-09-08T05:34:35;15.50;99.90
14946;DHT22;7567;50.916;6.900;2023-09-08T05:37:01;15.40;99.90
14946;DHT22;7567;50.916;6.900;2023-09-08T05:39:26;15.40;99.90
14946;DHT22;7567;50.916;6.900;2023-09-08T05:41:53;15.40;99.90
14946;DHT22;7567;50.916;6.900;2023-09-08T05:44:19;15.50;99.90
14946;DHT22;7567;50.916;6.900;2023-09-08T05:46:45;15.50;99.90
14946;DHT22;7567;50.916;6.900;2023-09-08T05:49:11;15.50;99.90
14946;DHT22;7567;50.916;6.900;2023-09-08T05:51:37;15.60;99.90
14946;DHT22;7567;50.916;6.900;2023-09-08T05:54:03;15.50;99.90
14946;DHT22;7567;50.916;6.900;2023-09-08T05:56:30;15.60;99.90
14946;DHT22;7567;50.916;6.900;2023-09-08T05:58:57;15.60;99.90
14946;DHT22;7567;50.916;6.900;2023-09-08T06:01:24;15.70;99.90
14946;DHT22;7567;50.916;6.900;2023-09-08T06:03:50;15.70;99.90
14946;DHT22;7567;50.916;6.900;2023-09-08T06:06:16;15.80;99.90
14946;DHT22;7567;50.916;6.900;2023-09-08T06:08:42;15.80;99.90
14946;DHT22;7567;50.916;6.900;2023-09-08T06:11:08;15.90;99.90
14946;DHT22;7567;50.916;6.900;2023-09-08T06:13:34;15.90;99.90
14946;DHT22;7567;50.916;6.900;2023-09-08T06:16:00;16.00;99.90
14946;DHT22;7567;50.916;6.900;2023-09-08T06:18:28;16.10;99.90
14946;DHT22;7567;50.916;6.900;2023-09-08T06:20:56;16.10;99.90
14946;DHT22;7567;50.916;6.900;2023-09-08T06:23:22;16.20;99.90
14946;DHT22;7567;50.916;6.900;2023-09-08T06:25:49;16.20;99.90
14946;DHT22;7567;50.916;6.900;2023-09-08T06:28:15;16.30;99.90
14946;DHT22;7567;50.916;6.900;2023-09-08T06:30:41;16.40;99.90
14946;DHT22;7567;50.916;6.900;2023-09-08T06:33:10;16.50;99.90
14946;DHT22;7567;50.916;6.900;2023-09-08T06:35:39;16.70;99.90
14946;DHT22;7567;50.916;6.900;2023-09-08T06:38:05;17.00;99.90
14946;DHT22;7567;50.916;6.900;2023-09-08T06:40:31;17.30;99.90
14946;DHT22;7567;50.916;6.900;2023-09-08T06:42:57;17.70;99.90
14946;DHT22;7567;50.916;6.900;2023-09-08T06:45:23;18.00;99.90
14946;DHT22;7567;50.916;6.900;2023-09-08T06:47:49;18.30;99.90
14946;DHT22;7567;50.916;6.900;2023-09-08T06:50:23;18.60;87.30
14946;DHT22;7567;50.916;6.900;2023-09-08T06:52:50;18.90;99.90
14946;DHT22;7567;50.916;6.900;2023-09-08T06:55:17;19.00;84.70
14946;DHT22;7567;50.916;6.900;2023-09-08T06:57:43;19.30;1.00
14946;DHT22;7567;50.916;6.900;2023-09-08T07:00:10;19.50;1.00
14946;DHT22;7567;50.916;6.900;2023-09-08T07:02:39;19.80;1.00
14946;DHT22;7567;50.916;6.900;2023-09-08T07:05:05;19.90;1.00
14946;DHT22;7567;50.916;6.900;2023-09-08T07:07:35;20.00;1.00
14946;DHT22;7567;50.916;6.900;2023-09-08T07:10:03;20.20;1.00
14946;DHT22;7567;50.916;6.900;2023-09-08T07:12:29;20.40;1.00
14946;DHT22;7567;50.916;6.900;2023-09-08T07:14:56;20.80;1.00
14946;DHT22;7567;50.916;6.900;2023-09-08T07:17:22;21.00;1.00
14946;DHT22;7567;50.916;6.900;2023-09-08T07:19:52;21.10;1.00
14946;DHT22;7567;50.916;6.900;2023-09-08T07:22:18;21.40;1.00
14946;DHT22;7567;50.916;6.900;2023-09-08T07:24:44;21.50;1.00
14946;DHT22;7567;50.916;6.900;2023-09-08T07:27:11;21.70;1.00
14946;DHT22;7567;50.916;6.900;2023-09-08T07:29:41;21.90;1.00
14946;DHT22;7567;50.916;6.900;2023-09-08T07:32:07;22.10;1.00
14946;DHT22;7567;50.916;6.900;2023-09-08T07:34:33;22.40;99.90
14946;DHT22;7567;50.916;6.900;2023-09-08T07:37:00;22.50;99.90
14946;DHT22;7567;50.916;6.900;2023-09-08T07:39:27;22.70;99.90
14946;DHT22;7567;50.916;6.900;2023-09-08T07:41:53;22.60;65.00
14946;DHT22;7567;50.916;6.900;2023-09-08T07:44:19;22.90;99.90
14946;DHT22;7567;50.916;6.900;2023-09-08T07:46:45;23.00;99.90
14946;DHT22;7567;50.916;6.900;2023-09-08T07:49:14;23.00;99.90
14946;DHT22;7567;50.916;6.900;2023-09-08T07:51:41;23.20;99.90
14946;DHT22;7567;50.916;6.900;2023-09-08T07:54:07;23.40;93.70
14946;DHT22;7567;50.916;6.900;2023-09-08T07:56:33;23.50;1.00
14946;DHT22;7567;50.916;6.900;2023-09-08T07:58:59;23.60;1.00
14946;DHT22;7567;50.916;6.900;2023-09-08T08:01:24;23.80;1.00
14946;DHT22;7567;50.916;6.900;2023-09-08T08:03:51;24.10;1.00
14946;DHT22;7567;50.916;6.900;2023-09-08T08:06:17;24.20;1.00
14946;DHT22;7567;50.916;6.900;2023-09-08T08:08:43;24.40;1.00
14946;DHT22;7567;50.916;6.900;2023-09-08T08:11:14;24.70;1.00
14946;DHT22;7567;50.916;6.900;2023-09-08T08:13:41;24.70;99.90
14946;DHT22;7567;50.916;6.900;2023-09-08T08:16:10;24.70;99.90
14946;DHT22;7567;50.916;6.900;2023-09-08T08:18:36;24.80;99.90
14946;DHT22;7567;50.916;6.900;2023-09-08T08:21:02;25.00;1.00
14946;DHT22;7567;50.916;6.900;2023-09-08T08:23:30;25.20;1.00
14946;DHT22;7567;50.916;6.900;2023-09-08T08:25:57;25.40;86.30
14946;DHT22;7567;50.916;6.900;2023-09-08T08:28:23;25.50;1.00
14946;DHT22;7567;50.916;6.900;2023-09-08T08:30:50;25.80;1.00
14946;DHT22;7567;50.916;6.900;2023-09-08T08:33:17;26.10;99.90
14946;DHT22;7567;50.916;6.900;2023-09-08T08:35:49;26.10;1.00
14946;DHT22;7567;50.916;6.900;2023-09-08T08:38:16;26.20;99.90
14946;DHT22;7567;50.916;6.900;2023-09-08T08:40:42;26.40;1.00
14946;DHT22;7567;50.916;6.900;2023-09-08T08:43:08;26.50;1.00
14946;DHT22;7567;50.916;6.900;2023-09-08T08:45:35;26.50;1.00
14946;DHT22;7567;50.916;6.900;2023-09-08T08:48:04;26.80;99.90
14946;DHT22;7567;50.916;6.900;2023-09-08T08:50:32;26.70;1.00
14946;DHT22;7567;50.916;6.900;2023-09-08T08:52:58;26.80;99.90
14946;DHT22;7567;50.916;6.900;2023-09-08T08:55:25;26.80;1.00
14946;DHT22;7567;50.916;6.900;2023-09-08T08:57:53;27.10;99.90
14946;DHT22;7567;50.916;6.900;2023-09-08T09:00:18;27.30;99.90
14946;DHT22;7567;50.916;6.900;2023-09-08T09:02:45;27.60;99.90
14946;DHT22;7567;50.916;6.900;2023-09-08T09:05:14;27.70;1.00
14946;DHT22;7567;50.916;6.900;2023-09-08T09:07:44;27.80;99.90
14946;DHT22;7567;50.916;6.900;2023-09-08T09:10:10;27.70;99.90
14946;DHT22;7567;50.916;6.900;2023-09-08T09:12:37;27.80;1.00
14946;DHT22;7567;50.916;6.900;2023-09-08T09:15:04;27.90;4.00
14946;DHT22;7567;50.916;6.900;2023-09-08T09:17:33;28.30;99.90
14946;DHT22;7567;50.916;6.900;2023-09-08T09:20:19;28.30;1.00
14946;DHT22;7567;50.916;6.900;2023-09-08T09:22:47;28.60;1.00
14946;DHT22;7567;50.916;6.900;2023-09-08T09:25:23;28.70;1.00
14946;DHT22;7567;50.916;6.900;2023-09-08T09:27:54;28.90;1.00
14946;DHT22;7567;50.916;6.900;2023-09-08T09:30:21;28.90;99.90
14946;DHT22;7567;50.916;6.900;2023-09-08T09:32:47;28.80;99.90
14946;DHT22;7567;50.916;6.900;2023-09-08T09:35:15;28.90;1.00
14946;DHT22;7567;50.916;6.900;2023-09-08T09:37:42;29.30;99.90
14946;DHT22;7567;50.916;6.900;2023-09-08T09:40:09;29.40;1.00
14946;DHT22;7567;50.916;6.900;2023-09-08T09:42:39;29.60;1.00
14946;DHT22;7567;50.916;6.900;2023-09-08T09:45:09;29.60;1.00
14946;DHT22;7567;50.916;6.900;2023-09-08T09:47:34;29.50;1.00
14946;DHT22;7567;50.916;6.900;2023-09-08T09:50:01;29.50;1.00
14946;DHT22;7567;50.916;6.900;2023-09-08T09:52:27;29.60;1.00
14946;DHT22;7567;50.916;6.900;2023-09-08T09:54:55;29.80;99.90
14946;DHT22;7567;50.916;6.900;2023-09-08T09:57:22;30.00;99.90
14946;DHT22;7567;50.916;6.900;2023-09-08T09:59:49;30.20;1.00
14946;DHT22;7567;50.916;6.900;2023-09-08T10:02:18;30.40;1.00
14946;DHT22;7567;50.916;6.900;2023-09-08T10:04:50;30.50;1.00
14946;DHT22;7567;50.916;6.900;2023-09-08T10:07:17;30.50;1.00
14946;DHT22;7567;50.916;6.900;2023-09-08T10:09:43;30.40;1.00
14946;DHT22;7567;50.916;6.900;2023-09-08T10:12:12;30.30;1.00
14946;DHT22;7567;50.916;6.900;2023-09-08T10:14:41;30.10;1.00
14946;DHT22;7567;50.916;6.900;2023-09-08T10:17:15;30.40;1.00
14946;DHT22;7567;50.916;6.900;2023-09-08T10:19:48;30.50;99.90
14946;DHT22;7567;50.916;6.900;2023-09-08T10:22:20;30.70;99.90
14946;DHT22;7567;50.916;6.900;2023-09-08T10:24:50;30.70;14.90
14946;DHT22;7567;50.916;6.900;2023-09-08T10:27:20;31.00;30.00
14946;DHT22;7567;50.916;6.900;2023-09-08T10:29:47;31.00;99.90
14946;DHT22;7567;50.916;6.900;2023-09-08T10:32:14;31.20;1.00
14946;DHT22;7567;50.916;6.900;2023-09-08T10:34:40;31.10;1.00
14946;DHT22;7567;50.916;6.900;2023-09-08T10:37:24;31.20;1.00
14946;DHT22;7567;50.916;6.900;2023-09-08T10:39:51;30.70;1.00
14946;DHT22;7567;50.916;6.900;2023-09-08T10:47:10;31.20;1.00
14946;DHT22;7567;50.916;6.900;2023-09-08T10:49:36;31.20;1.00
14946;DHT22;7567;50.916;6.900;2023-09-08T10:52:12;31.40;1.00
14946;DHT22;7567;50.916;6.900;2023-09-08T10:57:22;31.00;1.00
14946;DHT22;7567;50.916;6.900;2023-09-08T11:00:00;31.10;1.00
14946;DHT22;7567;50.916;6.900;2023-09-08T11:02:40;31.40;1.00
14946;DHT22;7567;50.916;6.900;2023-09-08T11:05:11;31.70;1.00
14946;DHT22;7567;50.916;6.900;2023-09-08T11:07:40;32.00;1.00
14946;DHT22;7567;50.916;6.900;2023-09-08T11:10:07;32.00;1.00
14946;DHT22;7567;50.916;6.900;2023-09-08T11:12:34;32.10;1.00
14946;DHT22;7567;50.916;6.900;2023-09-08T11:15:02;32.00;1.00
14946;DHT22;7567;50.916;6.900;2023-09-08T11:17:37;32.00;1.00
14946;DHT22;7567;50.916;6.900;2023-09-08T11:20:05;32.30;1.00
14946;DHT22;7567;50.916;6.900;2023-09-08T11:22:36;32.50;1.00
14946;DHT22;7567;50.916;6.900;2023-09-08T11:25:03;32.50;1.00
14946;DHT22;7567;50.916;6.900;2023-09-08T11:27:32;32.90;1.00
14946;DHT22;7567;50.916;6.900;2023-09-08T11:29:58;32.80;1.00
14946;DHT22;7567;50.916;6.900;2023-09-08T11:32:25;33.00;1.00
14946;DHT22;7567;50.916;6.900;2023-09-08T11:34:51;33.00;99.90
14946;DHT22;7567;50.916;6.900;2023-09-08T11:37:20;33.00;99.90
14946;DHT22;7567;50.916;6.900;2023-09-08T11:39:46;32.90;1.00
14946;DHT22;7567;50.916;6.900;2023-09-08T11:42:13;32.80;1.00
14946;DHT22;7567;50.916;6.900;2023-09-08T11:44:41;33.00;1.00
14946;DHT22;7567;50.916;6.900;2023-09-08T11:47:08;33.10;1.00
14946;DHT22;7567;50.916;6.900;2023-09-08T11:49:40;33.00;1.00
14946;DHT22;7567;50.916;6.900;2023-09-08T11:52:07;32.90;1.00
14946;DHT22;7567;50.916;6.900;2023-09-08T11:54:36;32.90;1.00
14946;DHT22;7567;50.916;6.900;2023-09-08T11:57:07;33.10;1.00
14946;DHT22;7567;50.916;6.900;2023-09-08T11:59:34;33.00;1.00
14946;DHT22;7567;50.916;6.900;2023-09-08T12:02:01;32.80;1.00
14946;DHT22;7567;50.916;6.900;2023-09-08T12:04:27;32.80;1.00
14946;DHT22;7567;50.916;6.900;2023-09-08T12:06:54;32.90;1.00
14946;DHT22;7567;50.916;6.900;2023-09-08T12:09:23;33.30;1.00
14946;DHT22;7567;50.916;6.900;2023-09-08T12:11:49;33.00;99.90
14946;DHT22;7567;50.916;6.900;2023-09-08T12:14:15;32.80;99.90
14946;DHT22;7567;50.916;6.900;2023-09-08T12:16:42;33.10;99.90
14946;DHT22;7567;50.916;6.900;2023-09-08T12:19:08;33.50;99.90
14946;DHT22;7567;50.916;6.900;2023-09-08T12:21:59;33.30;99.90
14946;DHT22;7567;50.916;6.900;2023-09-08T12:27:19;33.30;99.90
14946;DHT22;7567;50.916;6.900;2023-09-08T12:30:01;33.50;1.00
14946;DHT22;7567;50.916;6.900;2023-09-08T12:32:30;33.30;99.90
14946;DHT22;7567;50.916;6.900;2023-09-08T12:34:56;33.40;99.90
14946;DHT22;7567;50.916;6.900;2023-09-08T12:37:24;33.40;99.90
14946;DHT22;7567;50.916;6.900;2023-09-08T12:39:53;33.40;99.90
14946;DHT22;7567;50.916;6.900;2023-09-08T12:42:20;33.60;99.90
14946;DHT22;7567;50.916;6.900;2023-09-08T12:44:46;33.50;99.90
14946;DHT22;7567;50.916;6.900;2023-09-08T12:47:12;33.20;99.90
14946;DHT22;7567;50.916;6.900;2023-09-08T12:49:39;33.10;99.90
14946;DHT22;7567;50.916;6.900;2023-09-08T12:52:05;33.20;99.90
14946;DHT22;7567;50.916;6.900;2023-09-08T12:54:32;33.40;99.90
14946;DHT22;7567;50.916;6.900;2023-09-08T12:56:58;33.80;99.90
14946;DHT22;7567;50.916;6.900;2023-09-08T12:59:23;34.20;99.90
14946;DHT22;7567;50.916;6.900;2023-09-08T13:01:49;33.70;99.90
14946;DHT22;7567;50.916;6.900;2023-09-08T13:04:15;33.60;99.90
14946;DHT22;7567;50.916;6.900;2023-09-08T13:06:41;33.90;99.90
14946;DHT22;7567;50.916;6.900;2023-09-08T13:09:07;34.00;99.90
14946;DHT22;7567;50.916;6.900;2023-09-08T13:11:33;33.70;99.90
14946;DHT22;7567;50.916;6.900;2023-09-08T13:13:59;33.80;99.90
14946;DHT22;7567;50.916;6.900;2023-09-08T13:16:25;33.70;99.90
14946;DHT22;7567;50.916;6.900;2023-09-08T13:18:51;34.00;99.90
14946;DHT22;7567;50.916;6.900;2023-09-08T13:21:16;34.00;99.90
14946;DHT22;7567;50.916;6.900;2023-09-08T13:23:42;33.90;99.90
14946;DHT22;7567;50.916;6.900;2023-09-08T13:26:08;33.70;99.90
14946;DHT22;7567;50.916;6.900;2023-09-08T13:28:34;33.90;99.90
14946;DHT22;7567;50.916;6.900;2023-09-08T13:30:59;34.00;99.90
14946;DHT22;7567;50.916;6.900;2023-09-08T13:33:25;33.90;99.90
14946;DHT22;7567;50.916;6.900;2023-09-08T13:35:51;33.70;99.90
14946;DHT22;7567;50.916;6.900;2023-09-08T13:38:18;34.00;99.90
14946;DHT22;7567;50.916;6.900;2023-09-08T13:40:44;34.20;99.90
14946;DHT22;7567;50.916;6.900;2023-09-08T13:43:09;34.20;99.90
14946;DHT22;7567;50.916;6.900;2023-09-08T13:45:36;34.20;99.90
14946;DHT22;7567;50.916;6.900;2023-09-08T13:48:03;34.00;99.90
14946;DHT22;7567;50.916;6.900;2023-09-08T13:50:31;33.90;99.90
14946;DHT22;7567;50.916;6.900;2023-09-08T13:52:57;33.80;99.90
14946;DHT22;7567;50.916;6.900;2023-09-08T13:55:24;33.90;99.90
14946;DHT22;7567;50.916;6.900;2023-09-08T13:57:50;34.00;99.90
14946;DHT22;7567;50.916;6.900;2023-09-08T14:00:19;34.30;99.90
14946;DHT22;7567;50.916;6.900;2023-09-08T14:02:45;34.50;99.90
14946;DHT22;7567;50.916;6.900;2023-09-08T14:05:11;34.50;99.90
14946;DHT22;7567;50.916;6.900;2023-09-08T14:07:37;34.50;99.90
14946;DHT22;7567;50.916;6.900;2023-09-08T14:10:03;34.50;99.90
14946;DHT22;7567;50.916;6.900;2023-09-08T14:12:33;34.60;99.90
14946;DHT22;7567;50.916;6.900;2023-09-08T14:14:59;34.50;99.90
14946;DHT22;7567;50.916;6.900;2023-09-08T14:17:25;34.60;99.90
14946;DHT22;7567;50.916;6.900;2023-09-08T14:19:51;34.70;99.90
14946;DHT22;7567;50.916;6.900;2023-09-08T14:22:16;34.60;99.90
14946;DHT22;7567;50.916;6.900;2023-09-08T14:24:42;34.50;99.90
14946;DHT22;7567;50.916;6.900;2023-09-08T14:27:08;34.50;99.90
14946;DHT22;7567;50.916;6.900;2023-09-08T14:29:34;34.60;99.90
14946;DHT22;7567;50.916;6.900;2023-09-08T14:32:00;34.50;99.90
14946;DHT22;7567;50.916;6.900;2023-09-08T14:34:26;34.50;99.90
14946;DHT22;7567;50.916;6.900;2023-09-08T14:36:52;34.70;99.90
14946;DHT22;7567;50.916;6.900;2023-09-08T14:39:18;34.60;99.90
14946;DHT22;7567;50.916;6.900;2023-09-08T14:41:47;34.80;99.90
14946;DHT22;7567;50.916;6.900;2023-09-08T14:44:13;34.80;99.90
14946;DHT22;7567;50.916;6.900;2023-09-08T14:46:39;34.80;99.90
14946;DHT22;7567;50.916;6.900;2023-09-08T14:49:05;34.90;99.90
14946;DHT22;7567;50.916;6.900;2023-09-08T14:51:30;34.80;99.90
14946;DHT22;7567;50.916;6.900;2023-09-08T14:53:56;34.80;99.90
14946;DHT22;7567;50.916;6.900;2023-09-08T14:56:22;34.80;99.90
14946;DHT22;7567;50.916;6.900;2023-09-08T14:58:48;34.90;99.90
14946;DHT22;7567;50.916;6.900;2023-09-08T15:01:13;34.90;99.90
14946;DHT22;7567;50.916;6.900;2023-09-08T15:03:40;34.80;99.90
14946;DHT22;7567;50.916;6.900;2023-09-08T15:06:06;34.80;99.90
14946;DHT22;7567;50.916;6.900;2023-09-08T15:08:33;34.90;99.90
14946;DHT22;7567;50.916;6.900;2023-09-08T15:10:59;34.90;99.90
14946;DHT22;7567;50.916;6.900;2023-09-08T15:13:25;35.00;99.90
14946;DHT22;7567;50.916;6.900;2023-09-08T15:15:51;34.80;99.90
14946;DHT22;7567;50.916;6.900;2023-09-08T15:18:17;34.70;99.90
14946;DHT22;7567;50.916;6.900;2023-09-08T15:20:52;34.60;99.90
14946;DHT22;7567;50.916;6.900;2023-09-08T15:23:19;34.60;99.90
14946;DHT22;7567;50.916;6.900;2023-09-08T15:25:57;34.70;99.90
14946;DHT22;7567;50.916;6.900;2023-09-08T15:28:24;34.80;99.90
14946;DHT22;7567;50.916;6.900;2023-09-08T15:30:51;34.60;99.90
14946;DHT22;7567;50.916;6.900;2023-09-08T15:33:18;34.50;99.90
14946;DHT22;7567;50.916;6.900;2023-09-08T15:35:53;34.60;99.90
14946;DHT22;7567;50.916;6.900;2023-09-08T15:38:22;34.70;99.90
14946;DHT22;7567;50.916;6.900;2023-09-08T15:43:36;34.50;99.90
14946;DHT22;7567;50.916;6.900;2023-09-08T15:46:04;34.60;99.90
14946;DHT22;7567;50.916;6.900;2023-09-08T15:48:30;34.70;99.90
14946;DHT22;7567;50.916;6.900;2023-09-08T15:50:56;34.70;99.90
14946;DHT22;7567;50.916;6.900;2023-09-08T15:53:22;34.70;99.90
14946;DHT22;7567;50.916;6.900;2023-09-08T15:55:47;34.90;85.20
14946;DHT22;7567;50.916;6.900;2023-09-08T15:58:14;34.80;99.90
14946;DHT22;7567;50.916;6.900;2023-09-08T16:00:40;35.00;99.90
14946;DHT22;7567;50.916;6.900;2023-09-08T16:03:06;34.90;99.90
14946;DHT22;7567;50.916;6.900;2023-09-08T16:05:33;35.10;99.90
14946;DHT22;7567;50.916;6.900;2023-09-08T16:07:59;34.80;99.90